BBC Congo — V2EL3 — position and weather

sailwx.info

Track history (hours):
 
Tides and Currents Weather Stations Pressure Air Temp Water Temp Dewpoint Dewpoint Depression Visibility Wind Speed Wind Dir Waves Ship Positions

BBC Congo

Last reported at 2017-Jan-21 03:33 UTC. Time now 2017-Jan-21 04:25 UTC.
Position N 54°28' E 011°39'.

Length 144 m; draft 8.4 m.

Type: Cargo ship. MMSI: 305466000.

Date/timePositionNaut miles runAvg speedWind from/ knotsBaromVisibWave heightAir tempDewpointWater temp
2017-Jan-21 03:33N 54°28' E 011°39'1212.0
2017-Jan-21 02:33N 54°26' E 011°60'1010.4
2017-Jan-21 01:34N 54°33' E 012°13'5811.6
2017-Jan-20 20:33N 54°59' E 013°43'1211.8
2017-Jan-20 19:33N 55°04' E 014°01'1211.7
2017-Jan-20 18:33N 55°13' E 014°14'1212.1
2017-Jan-20 17:33N 55°22' E 014°28'1211.9
2017-Jan-20 16:33N 55°30' E 014°44'1212.4
2017-Jan-20 15:33N 55°36' E 015°03'1411.9
2017-Jan-20 14:24N 55°43' E 015°24'27811.7
2017-Jan-19 14:33N 59°44' E 019°46'1313.2
2017-Jan-19 13:33N 59°54' E 019°29'1313.3
2017-Jan-19 12:33N 60°04' E 019°12'1411.9
2017-Jan-19 11:23N 60°17' E 019°00'1012.0
2017-Jan-19 10:33N 60°27' E 018°59'  
2017-Jan-15 02:33N 60°13' E 019°04'9 8.9
2017-Jan-15 01:33N 60°06' E 019°15'9 9.5
2017-Jan-15 00:34N 59°59' E 019°27'10 9.9
2017-Jan-14 23:34N 59°51' E 019°40'279 9.6
2017-Jan-13 18:33N 55°13' E 019°06'10 9.8
2017-Jan-13 17:33N 55°03' E 019°03'1010.1
2017-Jan-13 16:33N 54°53' E 019°01'1110.6
2017-Jan-13 15:34N 54°43' E 018°60'1010.4
2017-Jan-13 14:33N 54°34' E 018°52'10 9.8
2017-Jan-13 13:33N 54°27' E 018°40'2 2.2
2017-Jan-13 12:33N 54°24' E 018°39'0 0.0
2017-Jan-13 11:33N 54°24' E 018°39'0 0.0
2017-Jan-13 10:33N 54°24' E 018°39'0 0.0
2017-Jan-13 09:33N 54°24' E 018°39'0 0.0
2017-Jan-13 08:33N 54°24' E 018°39'0 0.0
2017-Jan-13 07:33N 54°24' E 018°39'0 0.0
2017-Jan-13 06:33N 54°24' E 018°39'0 0.0
2017-Jan-13 05:33N 54°24' E 018°39'0 0.0
2017-Jan-13 04:33N 54°24' E 018°39'0 0.0
2017-Jan-13 03:33N 54°24' E 018°39'0 0.0
2017-Jan-13 02:33N 54°24' E 018°39'0 0.0
2017-Jan-13 01:33N 54°24' E 018°39'0 0.0
2017-Jan-13 00:33N 54°24' E 018°39'0 0.0
2017-Jan-12 23:33N 54°24' E 018°39'0 0.0
2017-Jan-12 22:33N 54°24' E 018°39'0 0.0
2017-Jan-12 21:33N 54°24' E 018°39'0 0.0
2017-Jan-12 20:33N 54°24' E 018°39'0 0.0
2017-Jan-12 19:33N 54°24' E 018°39'0 0.0
2017-Jan-12 18:33N 54°24' E 018°39'0 0.0
2017-Jan-12 17:33N 54°24' E 018°39'0 0.0
2017-Jan-12 16:33N 54°24' E 018°39'0 0.0
2017-Jan-12 15:33N 54°24' E 018°39'0 0.0
2017-Jan-12 14:33N 54°24' E 018°39'0 0.0
2017-Jan-12 13:33N 54°24' E 018°39'0 0.0
2017-Jan-12 12:33N 54°24' E 018°39'0 0.0
2017-Jan-12 11:33N 54°24' E 018°39'0 0.0
2017-Jan-12 10:33N 54°24' E 018°39'0 0.0
2017-Jan-12 09:33N 54°24' E 018°39'0 0.0
2017-Jan-12 08:33N 54°24' E 018°39'0 0.0
2017-Jan-12 07:33N 54°24' E 018°39'0 0.0
2017-Jan-12 06:33N 54°24' E 018°39'0 0.0
2017-Jan-12 05:33N 54°24' E 018°39'0 0.0
2017-Jan-12 04:33N 54°24' E 018°39'0 0.0
2017-Jan-12 03:33N 54°24' E 018°39'0 0.0
2017-Jan-12 02:33N 54°24' E 018°39'0 0.0
2017-Jan-12 01:33N 54°24' E 018°39'0 0.0
2017-Jan-12 00:33N 54°24' E 018°39'0 0.0
2017-Jan-11 23:33N 54°24' E 018°39'0 0.0
2017-Jan-11 22:33N 54°24' E 018°39'0 0.0
2017-Jan-11 21:33N 54°24' E 018°39'0 0.0
2017-Jan-11 20:33N 54°24' E 018°39'0 0.0
2017-Jan-11 19:33N 54°24' E 018°39'0 0.0
2017-Jan-11 18:33N 54°24' E 018°39'0 0.0
2017-Jan-11 17:33N 54°24' E 018°39'0 0.0
2017-Jan-11 16:33N 54°24' E 018°39'0 0.0
2017-Jan-11 15:33N 54°24' E 018°39'0 0.0
2017-Jan-11 14:33N 54°24' E 018°39'0 0.0
2017-Jan-11 13:33N 54°24' E 018°39'0 0.0
2017-Jan-11 12:33N 54°24' E 018°39'0 0.0
2017-Jan-11 11:33N 54°24' E 018°39'0 0.0
2017-Jan-11 10:33N 54°24' E 018°39'0 0.0
2017-Jan-11 09:33N 54°24' E 018°39'0 0.0
2017-Jan-11 08:33N 54°24' E 018°39'0 0.0
2017-Jan-11 07:33N 54°24' E 018°39'0 0.0
2017-Jan-11 06:33N 54°24' E 018°39'0 0.0
2017-Jan-11 05:33N 54°24' E 018°39'0 0.0
2017-Jan-11 04:33N 54°24' E 018°39'  
Track history (hours):
 
Tides and Currents Weather Stations Pressure Air Temp Water Temp Dewpoint Dewpoint Depression Visibility Wind Speed Wind Dir Waves Ship Positions

BBC Congo

Last reported at 2017-Jan-21 03:33 UTC. Time now 2017-Jan-21 04:25 UTC.
Position N 54°28' E 011°39'.

Length 144 m; draft 8.4 m.

Type: Cargo ship. MMSI: 305466000.

Date/timePositionNaut miles runAvg speedWind from/ knotsBaromVisibWave heightAir tempDewpointWater temp
2017-Jan-21 03:33N 54°28' E 011°39'1212.0
2017-Jan-21 02:33N 54°26' E 011°60'1010.4
2017-Jan-21 01:34N 54°33' E 012°13'5811.6
2017-Jan-20 20:33N 54°59' E 013°43'1211.8
2017-Jan-20 19:33N 55°04' E 014°01'1211.7
2017-Jan-20 18:33N 55°13' E 014°14'1212.1
2017-Jan-20 17:33N 55°22' E 014°28'1211.9
2017-Jan-20 16:33N 55°30' E 014°44'1212.4
2017-Jan-20 15:33N 55°36' E 015°03'1411.9
2017-Jan-20 14:24N 55°43' E 015°24'27811.7
2017-Jan-19 14:33N 59°44' E 019°46'1313.2
2017-Jan-19 13:33N 59°54' E 019°29'1313.3
2017-Jan-19 12:33N 60°04' E 019°12'1411.9
2017-Jan-19 11:23N 60°17' E 019°00'1012.0
2017-Jan-19 10:33N 60°27' E 018°59'  
2017-Jan-15 02:33N 60°13' E 019°04'9 8.9
2017-Jan-15 01:33N 60°06' E 019°15'9 9.5
2017-Jan-15 00:34N 59°59' E 019°27'10 9.9
2017-Jan-14 23:34N 59°51' E 019°40'279 9.6
2017-Jan-13 18:33N 55°13' E 019°06'10 9.8
2017-Jan-13 17:33N 55°03' E 019°03'1010.1
2017-Jan-13 16:33N 54°53' E 019°01'1110.6
2017-Jan-13 15:34N 54°43' E 018°60'1010.4
2017-Jan-13 14:33N 54°34' E 018°52'10 9.8
2017-Jan-13 13:33N 54°27' E 018°40'2 2.2
2017-Jan-13 12:33N 54°24' E 018°39'0 0.0
2017-Jan-13 11:33N 54°24' E 018°39'0 0.0
2017-Jan-13 10:33N 54°24' E 018°39'0 0.0
2017-Jan-13 09:33N 54°24' E 018°39'0 0.0
2017-Jan-13 08:33N 54°24' E 018°39'0 0.0
2017-Jan-13 07:33N 54°24' E 018°39'0 0.0
2017-Jan-13 06:33N 54°24' E 018°39'0 0.0
2017-Jan-13 05:33N 54°24' E 018°39'0 0.0
2017-Jan-13 04:33N 54°24' E 018°39'0 0.0
2017-Jan-13 03:33N 54°24' E 018°39'0 0.0
2017-Jan-13 02:33N 54°24' E 018°39'0 0.0
2017-Jan-13 01:33N 54°24' E 018°39'0 0.0
2017-Jan-13 00:33N 54°24' E 018°39'0 0.0
2017-Jan-12 23:33N 54°24' E 018°39'0 0.0
2017-Jan-12 22:33N 54°24' E 018°39'0 0.0
2017-Jan-12 21:33N 54°24' E 018°39'0 0.0
2017-Jan-12 20:33N 54°24' E 018°39'0 0.0
2017-Jan-12 19:33N 54°24' E 018°39'0 0.0
2017-Jan-12 18:33N 54°24' E 018°39'0 0.0
2017-Jan-12 17:33N 54°24' E 018°39'0 0.0
2017-Jan-12 16:33N 54°24' E 018°39'0 0.0
2017-Jan-12 15:33N 54°24' E 018°39'0 0.0
2017-Jan-12 14:33N 54°24' E 018°39'0 0.0
2017-Jan-12 13:33N 54°24' E 018°39'0 0.0
2017-Jan-12 12:33N 54°24' E 018°39'0 0.0
2017-Jan-12 11:33N 54°24' E 018°39'0 0.0
2017-Jan-12 10:33N 54°24' E 018°39'0 0.0
2017-Jan-12 09:33N 54°24' E 018°39'0 0.0
2017-Jan-12 08:33N 54°24' E 018°39'0 0.0
2017-Jan-12 07:33N 54°24' E 018°39'0 0.0
2017-Jan-12 06:33N 54°24' E 018°39'0 0.0
2017-Jan-12 05:33N 54°24' E 018°39'0 0.0
2017-Jan-12 04:33N 54°24' E 018°39'0 0.0
2017-Jan-12 03:33N 54°24' E 018°39'0 0.0
2017-Jan-12 02:33N 54°24' E 018°39'0 0.0
2017-Jan-12 01:33N 54°24' E 018°39'0 0.0
2017-Jan-12 00:33N 54°24' E 018°39'0 0.0
2017-Jan-11 23:33N 54°24' E 018°39'0 0.0
2017-Jan-11 22:33N 54°24' E 018°39'0 0.0
2017-Jan-11 21:33N 54°24' E 018°39'0 0.0
2017-Jan-11 20:33N 54°24' E 018°39'0 0.0
2017-Jan-11 19:33N 54°24' E 018°39'0 0.0
2017-Jan-11 18:33N 54°24' E 018°39'0 0.0
2017-Jan-11 17:33N 54°24' E 018°39'0 0.0
2017-Jan-11 16:33N 54°24' E 018°39'0 0.0
2017-Jan-11 15:33N 54°24' E 018°39'0 0.0
2017-Jan-11 14:33N 54°24' E 018°39'0 0.0
2017-Jan-11 13:33N 54°24' E 018°39'0 0.0
2017-Jan-11 12:33N 54°24' E 018°39'0 0.0
2017-Jan-11 11:33N 54°24' E 018°39'0 0.0
2017-Jan-11 10:33N 54°24' E 018°39'0 0.0
2017-Jan-11 09:33N 54°24' E 018°39'0 0.0
2017-Jan-11 08:33N 54°24' E 018°39'0 0.0
2017-Jan-11 07:33N 54°24' E 018°39'0 0.0
2017-Jan-11 06:33N 54°24' E 018°39'0 0.0
2017-Jan-11 05:33N 54°24' E 018°39'0 0.0
2017-Jan-11 04:33N 54°24' E 018°39'  

Dump ship's entire track history